Portada
METAR-TAF:

METAR-TAF

Aeroports :

Jaipur, Índia

latitud: 26-49N, longitud: 075-48E, altitud: 385 m

Observació

L'informe es va fer fa 38 minuts, a les 11:30 UTC
Vent 7 kt del Nord/Nord-Oest
Temperatura 30°C
Humitat 10%
Pressió 1017 hPa
Visibilitat: 8000 m

METAR: VIJP 171130Z 34007KT 8000 NSC 30/M05 Q1017 NOSIG

Hora: 17:38 (12:08 UTC)

Pronòstic

L'informe es va fer fa 4 hores i 8 minuts, a les 08:00 UTC
Pronòstic vàlid del 17 a les 09 UTC al 17 a les 18 UTC
Vent 8 kt del Oest/Nord-Oest
Visibilitat: 5000 m
calitja
Evolucionant progressivament
l' 17 a les 12 UTC al 17 a les 14 UTC
Vent 3 kt amb direcció variable
Visibilitat: 3000 m
calitja

TAF: VIJP 170800Z 1709/1718 29008KT 5000 HZ NSC BECMG 1712/1714 VRB03KT 3000 HZ

Observacions i pronòstics meteorològics de més de 4000 aeroports (METAR i TAF).

Les estacions disponibles són els punts grocs i vermells al mapa.

Posi el ratolí al punt desitjat per veure el nom de l'estació.

Feu clic per veure les observacions i els pronòstics meteorològics.

Per canviar el mapa: feu clic els botons verds amb una creu de color negre per apropar; al botó verd amb un guió per allunyar la imatge; o en les fletxes verdes per a mapes adjacents.


METAR-TAF: